sensor_id;sensor_type;location;lat;lon;timestamp;pressure;altitude;pressure_sealevel;temperature
65316;BMP280;51920;53.952;10.292;2023-07-29T00:00:11;100301.75;;;17.03
65316;BMP280;51920;53.952;10.292;2023-07-29T00:02:40;100299.03;;;17.03
65316;BMP280;51920;53.952;10.292;2023-07-29T00:05:06;100298.25;;;17.02
65316;BMP280;51920;53.952;10.292;2023-07-29T00:07:33;100295.53;;;17.02
65316;BMP280;51920;53.952;10.292;2023-07-29T00:10:01;100282.72;;;16.99
65316;BMP280;51920;53.952;10.292;2023-07-29T00:12:29;100296.50;;;16.96
65316;BMP280;51920;53.952;10.292;2023-07-29T00:14:56;100294.09;;;16.98
65316;BMP280;51920;53.952;10.292;2023-07-29T00:17:22;100297.59;;;16.98
65316;BMP280;51920;53.952;10.292;2023-07-29T00:19:49;100295.63;;;16.99
65316;BMP280;51920;53.952;10.292;2023-07-29T00:22:15;100296.41;;;16.99
65316;BMP280;51920;53.952;10.292;2023-07-29T00:24:42;100288.50;;;17.01
65316;BMP280;51920;53.952;10.292;2023-07-29T00:27:09;100285.22;;;17.07
65316;BMP280;51920;53.952;10.292;2023-07-29T00:29:36;100275.41;;;17.09
65316;BMP280;51920;53.952;10.292;2023-07-29T00:32:03;100276.47;;;17.12
65316;BMP280;51920;53.952;10.292;2023-07-29T00:34:29;100263.88;;;17.14
65316;BMP280;51920;53.952;10.292;2023-07-29T00:36:57;100264.78;;;17.11
65316;BMP280;51920;53.952;10.292;2023-07-29T00:39:24;100259.00;;;17.09
65316;BMP280;51920;53.952;10.292;2023-07-29T00:41:51;100254.69;;;17.08
65316;BMP280;51920;53.952;10.292;2023-07-29T00:44:17;100257.31;;;17.12
65316;BMP280;51920;53.952;10.292;2023-07-29T00:46:45;100255.34;;;17.12
65316;BMP280;51920;53.952;10.292;2023-07-29T00:49:12;100247.47;;;17.14
65316;BMP280;51920;53.952;10.292;2023-07-29T00:51:40;100244.72;;;17.14
65316;BMP280;51920;53.952;10.292;2023-07-29T00:54:07;100246.72;;;17.14
65316;BMP280;51920;53.952;10.292;2023-07-29T00:56:34;100247.47;;;17.14
65316;BMP280;51920;53.952;10.292;2023-07-29T00:59:02;100243.63;;;17.12
65316;BMP280;51920;53.952;10.292;2023-07-29T01:01:29;100243.34;;;17.10
65316;BMP280;51920;53.952;10.292;2023-07-29T01:03:56;100242.09;;;17.11
65316;BMP280;51920;53.952;10.292;2023-07-29T01:08:59;100240.81;;;17.15
65316;BMP280;51920;53.952;10.292;2023-07-29T01:11:38;100227.88;;;17.16
65316;BMP280;51920;53.952;10.292;2023-07-29T01:14:36;100229.41;;;17.17
65316;BMP280;51920;53.952;10.292;2023-07-29T01:17:08;100231.84;;;17.15
65316;BMP280;51920;53.952;10.292;2023-07-29T01:20:00;100227.22;;;17.12
65316;BMP280;51920;53.952;10.292;2023-07-29T01:22:34;100226.69;;;17.04
65316;BMP280;51920;53.952;10.292;2023-07-29T01:25:01;100228.63;;;17.03
65316;BMP280;51920;53.952;10.292;2023-07-29T01:27:28;100222.84;;;17.01
65316;BMP280;51920;53.952;10.292;2023-07-29T01:29:57;100230.63;;;17.03
65316;BMP280;51920;53.952;10.292;2023-07-29T01:37:37;100220.69;;;17.09
65316;BMP280;51920;53.952;10.292;2023-07-29T01:40:06;100222.50;;;17.12
65316;BMP280;51920;53.952;10.292;2023-07-29T01:42:34;100224.69;;;17.17
65316;BMP280;51920;53.952;10.292;2023-07-29T01:45:01;100213.31;;;17.19
65316;BMP280;51920;53.952;10.292;2023-07-29T01:47:28;100209.41;;;17.20
65316;BMP280;51920;53.952;10.292;2023-07-29T01:49:55;100212.44;;;17.22
65316;BMP280;51920;53.952;10.292;2023-07-29T01:52:21;100210.03;;;17.24
65316;BMP280;51920;53.952;10.292;2023-07-29T01:54:49;100201.41;;;17.26
65316;BMP280;51920;53.952;10.292;2023-07-29T01:57:16;100201.06;;;17.23
65316;BMP280;51920;53.952;10.292;2023-07-29T01:59:43;100209.69;;;17.22
65316;BMP280;51920;53.952;10.292;2023-07-29T02:02:09;100211.66;;;17.21
65316;BMP280;51920;53.952;10.292;2023-07-29T02:04:36;100201.06;;;17.23
65316;BMP280;51920;53.952;10.292;2023-07-29T02:07:04;100212.78;;;17.24
65316;BMP280;51920;53.952;10.292;2023-07-29T02:09:31;100218.13;;;17.28
65316;BMP280;51920;53.952;10.292;2023-07-29T02:11:58;100212.22;;;17.29
65316;BMP280;51920;53.952;10.292;2023-07-29T02:14:25;100212.56;;;17.31
65316;BMP280;51920;53.952;10.292;2023-07-29T02:16:51;100203.25;;;17.29
65316;BMP280;51920;53.952;10.292;2023-07-29T02:19:19;100202.34;;;17.32
65316;BMP280;51920;53.952;10.292;2023-07-29T02:21:45;100193.28;;;17.35
65316;BMP280;51920;53.952;10.292;2023-07-29T02:24:12;100194.34;;;17.37
65316;BMP280;51920;53.952;10.292;2023-07-29T02:26:39;100194.03;;;17.35
65316;BMP280;51920;53.952;10.292;2023-07-29T02:29:06;100183.38;;;17.37
65316;BMP280;51920;53.952;10.292;2023-07-29T02:31:32;100188.44;;;17.39
65316;BMP280;51920;53.952;10.292;2023-07-29T02:34:01;100190.41;;;17.38
65316;BMP280;51920;53.952;10.292;2023-07-29T02:36:28;100184.38;;;17.43
65316;BMP280;51920;53.952;10.292;2023-07-29T02:38:55;100182.72;;;17.46
65316;BMP280;51920;53.952;10.292;2023-07-29T02:41:23;100180.41;;;17.44
65316;BMP280;51920;53.952;10.292;2023-07-29T02:43:50;100182.72;;;17.46
65316;BMP280;51920;53.952;10.292;2023-07-29T02:46:17;100187.75;;;17.47
65316;BMP280;51920;53.952;10.292;2023-07-29T02:48:44;100185.34;;;17.50
65316;BMP280;51920;53.952;10.292;2023-07-29T02:51:11;100181.41;;;17.51
65316;BMP280;51920;53.952;10.292;2023-07-29T02:53:38;100180.19;;;17.52
65316;BMP280;51920;53.952;10.292;2023-07-29T02:56:05;100186.00;;;17.54
65316;BMP280;51920;53.952;10.292;2023-07-29T02:58:33;100184.44;;;17.53
65316;BMP280;51920;53.952;10.292;2023-07-29T03:01:06;100190.69;;;17.53
65316;BMP280;51920;53.952;10.292;2023-07-29T03:03:33;100194.22;;;17.54
65316;BMP280;51920;53.952;10.292;2023-07-29T03:06:05;100196.53;;;17.55
65316;BMP280;51920;53.952;10.292;2023-07-29T03:08:32;100186.63;;;17.58
65316;BMP280;51920;53.952;10.292;2023-07-29T03:11:05;100185.88;;;17.57
65316;BMP280;51920;53.952;10.292;2023-07-29T03:13:32;100172.63;;;17.56
65316;BMP280;51920;53.952;10.292;2023-07-29T03:16:10;100152.59;;;17.59
65316;BMP280;51920;53.952;10.292;2023-07-29T03:18:38;100180.28;;;17.61
65316;BMP280;51920;53.952;10.292;2023-07-29T03:21:05;100177.09;;;17.62
65316;BMP280;51920;53.952;10.292;2023-07-29T03:23:32;100178.94;;;17.65
65316;BMP280;51920;53.952;10.292;2023-07-29T03:26:00;100176.06;;;17.69
65316;BMP280;51920;53.952;10.292;2023-07-29T03:28:29;100179.91;;;17.72
65316;BMP280;51920;53.952;10.292;2023-07-29T03:30:56;100174.31;;;17.75
65316;BMP280;51920;53.952;10.292;2023-07-29T03:33:25;100173.75;;;17.80
65316;BMP280;51920;53.952;10.292;2023-07-29T03:35:53;100175.72;;;17.80
65316;BMP280;51920;53.952;10.292;2023-07-29T03:38:20;100172.53;;;17.81
65316;BMP280;51920;53.952;10.292;2023-07-29T03:40:47;100165.84;;;17.82
65316;BMP280;51920;53.952;10.292;2023-07-29T03:43:14;100168.59;;;17.82
65316;BMP280;51920;53.952;10.292;2023-07-29T03:45:41;100172.53;;;17.81
65316;BMP280;51920;53.952;10.292;2023-07-29T03:48:08;100161.59;;;17.81
65316;BMP280;51920;53.952;10.292;2023-07-29T03:50:36;100167.06;;;17.81
65316;BMP280;51920;53.952;10.292;2023-07-29T03:53:04;100162.34;;;17.82
65316;BMP280;51920;53.952;10.292;2023-07-29T03:55:31;100151.72;;;17.84
65316;BMP280;51920;53.952;10.292;2023-07-29T03:57:59;100157.94;;;17.84
65316;BMP280;51920;53.952;10.292;2023-07-29T04:00:27;100148.53;;;17.85
65316;BMP280;51920;53.952;10.292;2023-07-29T04:02:54;100154.31;;;17.87
65316;BMP280;51920;53.952;10.292;2023-07-29T04:05:21;100149.59;;;17.88
65316;BMP280;51920;53.952;10.292;2023-07-29T04:07:48;100147.94;;;17.90
65316;BMP280;51920;53.952;10.292;2023-07-29T04:10:15;100141.56;;;17.94
65316;BMP280;51920;53.952;10.292;2023-07-29T04:12:43;100156.34;;;17.96
65316;BMP280;51920;53.952;10.292;2023-07-29T04:15:09;100148.03;;;18.00
65316;BMP280;51920;53.952;10.292;2023-07-29T04:17:37;100163.09;;;18.04
65316;BMP280;51920;53.952;10.292;2023-07-29T04:20:04;100146.97;;;18.06
65316;BMP280;51920;53.952;10.292;2023-07-29T04:22:33;100150.81;;;18.09
65316;BMP280;51920;53.952;10.292;2023-07-29T04:25:00;100150.69;;;18.12
65316;BMP280;51920;53.952;10.292;2023-07-29T04:27:27;100139.28;;;18.14
65316;BMP280;51920;53.952;10.292;2023-07-29T04:29:53;100137.16;;;18.18
65316;BMP280;51920;53.952;10.292;2023-07-29T04:32:21;100135.97;;;18.19
65316;BMP280;51920;53.952;10.292;2023-07-29T04:34:47;100144.47;;;18.21
65316;BMP280;51920;53.952;10.292;2023-07-29T04:37:14;100137.34;;;18.24
65316;BMP280;51920;53.952;10.292;2023-07-29T04:39:41;100138.13;;;18.24
65316;BMP280;51920;53.952;10.292;2023-07-29T04:42:07;100142.69;;;18.27
65316;BMP280;51920;53.952;10.292;2023-07-29T04:44:34;100141.78;;;18.30
65316;BMP280;51920;53.952;10.292;2023-07-29T04:47:01;100147.25;;;18.30
65316;BMP280;51920;53.952;10.292;2023-07-29T04:49:28;100144.53;;;18.30
65316;BMP280;51920;53.952;10.292;2023-07-29T04:51:55;100144.84;;;18.32
65316;BMP280;51920;53.952;10.292;2023-07-29T04:54:22;100153.38;;;18.34
65316;BMP280;51920;53.952;10.292;2023-07-29T04:56:49;100147.75;;;18.38
65316;BMP280;51920;53.952;10.292;2023-07-29T04:59:16;100148.22;;;18.36
65316;BMP280;51920;53.952;10.292;2023-07-29T05:01:43;100152.78;;;18.40
65316;BMP280;51920;53.952;10.292;2023-07-29T05:04:10;100143.34;;;18.41
65316;BMP280;51920;53.952;10.292;2023-07-29T05:06:37;100146.84;;;18.41
65316;BMP280;51920;53.952;10.292;2023-07-29T05:09:24;100149.16;;;18.43
65316;BMP280;51920;53.952;10.292;2023-07-29T05:11:53;100150.22;;;18.45
65316;BMP280;51920;53.952;10.292;2023-07-29T05:14:20;100143.84;;;18.48
65316;BMP280;51920;53.952;10.292;2023-07-29T05:16:47;100145.69;;;18.51
65316;BMP280;51920;53.952;10.292;2023-07-29T05:19:14;100144.31;;;18.56
65316;BMP280;51920;53.952;10.292;2023-07-29T05:21:41;100144.22;;;18.59
65316;BMP280;51920;53.952;10.292;2023-07-29T05:24:08;100137.81;;;18.63
65316;BMP280;51920;53.952;10.292;2023-07-29T05:26:35;100141.97;;;18.67
65316;BMP280;51920;53.952;10.292;2023-07-29T05:29:02;100136.34;;;18.71
65316;BMP280;51920;53.952;10.292;2023-07-29T05:31:30;100136.94;;;18.75
65316;BMP280;51920;53.952;10.292;2023-07-29T05:33:58;100139.09;;;18.80
65316;BMP280;51920;53.952;10.292;2023-07-29T05:36:26;100139.41;;;18.82
65316;BMP280;51920;53.952;10.292;2023-07-29T05:38:53;100133.63;;;18.89
65316;BMP280;51920;53.952;10.292;2023-07-29T05:41:20;100137.00;;;19.02
65316;BMP280;51920;53.952;10.292;2023-07-29T05:43:47;100134.88;;;19.07
65316;BMP280;51920;53.952;10.292;2023-07-29T05:46:14;100134.13;;;19.06
65316;BMP280;51920;53.952;10.292;2023-07-29T05:48:41;100127.72;;;19.00
65316;BMP280;51920;53.952;10.292;2023-07-29T05:51:07;100132.72;;;19.11
65316;BMP280;51920;53.952;10.292;2023-07-29T05:53:34;100130.19;;;19.16
65316;BMP280;51920;53.952;10.292;2023-07-29T05:56:01;100132.31;;;19.21
65316;BMP280;51920;53.952;10.292;2023-07-29T05:58:28;100144.22;;;19.27
65316;BMP280;51920;53.952;10.292;2023-07-29T06:00:54;100125.59;;;19.32
65316;BMP280;51920;53.952;10.292;2023-07-29T06:03:21;100127.75;;;19.46
65316;BMP280;51920;53.952;10.292;2023-07-29T06:05:50;100125.59;;;19.59
65316;BMP280;51920;53.952;10.292;2023-07-29T06:08:17;100118.59;;;19.67
65316;BMP280;51920;53.952;10.292;2023-07-29T06:10:44;100110.63;;;19.69
65316;BMP280;51920;53.952;10.292;2023-07-29T06:13:10;100115.69;;;19.71
65316;BMP280;51920;53.952;10.292;2023-07-29T06:15:37;100097.81;;;19.66
65316;BMP280;51920;53.952;10.292;2023-07-29T06:18:04;100097.19;;;19.71
65316;BMP280;51920;53.952;10.292;2023-07-29T06:20:30;100121.13;;;19.89
65316;BMP280;51920;53.952;10.292;2023-07-29T06:22:57;100121.56;;;19.97
65316;BMP280;51920;53.952;10.292;2023-07-29T06:25:24;100122.94;;;20.02
65316;BMP280;51920;53.952;10.292;2023-07-29T06:27:50;100127.34;;;19.99
65316;BMP280;51920;53.952;10.292;2023-07-29T06:30:17;100128.59;;;19.98
65316;BMP280;51920;53.952;10.292;2023-07-29T06:32:44;100131.19;;;20.02
65316;BMP280;51920;53.952;10.292;2023-07-29T06:35:10;100135.09;;;20.10
65316;BMP280;51920;53.952;10.292;2023-07-29T06:37:37;100128.84;;;20.09
65316;BMP280;51920;53.952;10.292;2023-07-29T06:40:04;100140.16;;;20.11
65316;BMP280;51920;53.952;10.292;2023-07-29T06:42:31;100127.97;;;20.03
65316;BMP280;51920;53.952;10.292;2023-07-29T06:44:58;100129.94;;;20.03
65316;BMP280;51920;53.952;10.292;2023-07-29T06:47:25;100127.94;;;20.12
65316;BMP280;51920;53.952;10.292;2023-07-29T06:49:53;100115.72;;;20.13
65316;BMP280;51920;53.952;10.292;2023-07-29T06:52:20;100122.09;;;20.20
65316;BMP280;51920;53.952;10.292;2023-07-29T06:54:47;100104.84;;;20.19
65316;BMP280;51920;53.952;10.292;2023-07-29T06:57:13;100115.19;;;20.33
65316;BMP280;51920;53.952;10.292;2023-07-29T06:59:40;100122.91;;;20.44
65316;BMP280;51920;53.952;10.292;2023-07-29T07:02:07;100125.50;;;20.48
65316;BMP280;51920;53.952;10.292;2023-07-29T07:04:33;100115.06;;;20.52
65316;BMP280;51920;53.952;10.292;2023-07-29T07:07:00;100098.47;;;20.46
65316;BMP280;51920;53.952;10.292;2023-07-29T07:09:27;100106.22;;;20.48
65316;BMP280;51920;53.952;10.292;2023-07-29T07:11:53;100110.03;;;20.50
65316;BMP280;51920;53.952;10.292;2023-07-29T07:14:20;100117.66;;;20.55
65316;BMP280;51920;53.952;10.292;2023-07-29T07:16:47;100122.13;;;20.53
65316;BMP280;51920;53.952;10.292;2023-07-29T07:19:13;100105.78;;;20.49
65316;BMP280;51920;53.952;10.292;2023-07-29T07:21:40;100121.75;;;20.93
65316;BMP280;51920;53.952;10.292;2023-07-29T07:24:06;100106.25;;;21.49
65316;BMP280;51920;53.952;10.292;2023-07-29T07:26:34;100103.22;;;21.77
65316;BMP280;51920;53.952;10.292;2023-07-29T07:29:00;100113.75;;;22.08
65316;BMP280;51920;53.952;10.292;2023-07-29T07:31:27;100110.13;;;22.37
65316;BMP280;51920;53.952;10.292;2023-07-29T07:33:54;100096.50;;;22.28
65316;BMP280;51920;53.952;10.292;2023-07-29T07:36:20;100110.19;;;22.58
65316;BMP280;51920;53.952;10.292;2023-07-29T07:38:47;100112.16;;;22.57
65316;BMP280;51920;53.952;10.292;2023-07-29T07:41:14;100115.09;;;22.33
65316;BMP280;51920;53.952;10.292;2023-07-29T07:43:40;100101.38;;;22.03
65316;BMP280;51920;53.952;10.292;2023-07-29T07:46:07;100113.19;;;21.89
65316;BMP280;51920;53.952;10.292;2023-07-29T07:48:34;100090.88;;;21.58
65316;BMP280;51920;53.952;10.292;2023-07-29T07:51:13;100106.25;;;21.49
65316;BMP280;51920;53.952;10.292;2023-07-29T07:53:40;100103.00;;;21.36
65316;BMP280;51920;53.952;10.292;2023-07-29T07:56:12;100083.97;;;21.08
65316;BMP280;51920;53.952;10.292;2023-07-29T07:58:42;100097.66;;;21.18
65316;BMP280;51920;53.952;10.292;2023-07-29T08:01:16;100095.09;;;21.14
65316;BMP280;51920;53.952;10.292;2023-07-29T08:03:54;100088.19;;;21.19
65316;BMP280;51920;53.952;10.292;2023-07-29T08:06:32;100106.63;;;21.42
65316;BMP280;51920;53.952;10.292;2023-07-29T08:09:07;100088.97;;;21.34
65316;BMP280;51920;53.952;10.292;2023-07-29T08:11:34;100107.97;;;21.47
65316;BMP280;51920;53.952;10.292;2023-07-29T08:14:04;100097.78;;;21.38
65316;BMP280;51920;53.952;10.292;2023-07-29T08:16:32;100091.59;;;21.28
65316;BMP280;51920;53.952;10.292;2023-07-29T08:18:59;100076.69;;;21.20
65316;BMP280;51920;53.952;10.292;2023-07-29T08:21:27;100082.41;;;21.31
65316;BMP280;51920;53.952;10.292;2023-07-29T08:23:53;100111.38;;;21.42
65316;BMP280;51920;53.952;10.292;2023-07-29T08:26:20;100095.59;;;21.42
65316;BMP280;51920;53.952;10.292;2023-07-29T08:28:48;100095.03;;;21.53
65316;BMP280;51920;53.952;10.292;2023-07-29T08:31:18;100090.78;;;21.52
65316;BMP280;51920;53.952;10.292;2023-07-29T08:33:44;100095.53;;;21.66
65316;BMP280;51920;53.952;10.292;2023-07-29T08:36:11;100099.03;;;21.96
65316;BMP280;51920;53.952;10.292;2023-07-29T08:38:37;100107.44;;;22.22
65316;BMP280;51920;53.952;10.292;2023-07-29T08:41:13;100090.28;;;22.33
65316;BMP280;51920;53.952;10.292;2023-07-29T08:43:47;100072.59;;;22.25
65316;BMP280;51920;53.952;10.292;2023-07-29T08:46:15;100094.44;;;22.43
65316;BMP280;51920;53.952;10.292;2023-07-29T08:48:43;100097.47;;;22.45
65316;BMP280;51920;53.952;10.292;2023-07-29T08:51:14;100093.56;;;22.37
65316;BMP280;51920;53.952;10.292;2023-07-29T08:53:43;100082.00;;;22.33
65316;BMP280;51920;53.952;10.292;2023-07-29T08:56:10;100077.28;;;22.19
65316;BMP280;51920;53.952;10.292;2023-07-29T08:58:37;100072.38;;;22.08
65316;BMP280;51920;53.952;10.292;2023-07-29T09:01:12;100096.31;;;22.17
65316;BMP280;51920;53.952;10.292;2023-07-29T09:03:38;100103.34;;;22.18
65316;BMP280;51920;53.952;10.292;2023-07-29T09:06:08;100078.78;;;21.99
65316;BMP280;51920;53.952;10.292;2023-07-29T09:08:47;100093.25;;;22.15
65316;BMP280;51920;53.952;10.292;2023-07-29T09:11:15;100087.34;;;22.22
65316;BMP280;51920;53.952;10.292;2023-07-29T09:13:45;100096.63;;;22.39
65316;BMP280;51920;53.952;10.292;2023-07-29T09:16:13;100073.28;;;22.20
65316;BMP280;51920;53.952;10.292;2023-07-29T09:18:40;100096.66;;;22.24
65316;BMP280;51920;53.952;10.292;2023-07-29T09:21:07;100079.44;;;22.50
65316;BMP280;51920;53.952;10.292;2023-07-29T09:23:41;100083.53;;;22.75
65316;BMP280;51920;53.952;10.292;2023-07-29T09:26:11;100096.88;;;23.03
65316;BMP280;51920;53.952;10.292;2023-07-29T09:28:52;100073.88;;;23.37
65316;BMP280;51920;53.952;10.292;2023-07-29T09:31:24;100065.09;;;23.39
65316;BMP280;51920;53.952;10.292;2023-07-29T09:34:02;100076.63;;;23.37
65316;BMP280;51920;53.952;10.292;2023-07-29T09:36:41;100085.47;;;23.73
65316;BMP280;51920;53.952;10.292;2023-07-29T09:39:12;100083.81;;;23.55
65316;BMP280;51920;53.952;10.292;2023-07-29T09:41:47;100069.91;;;23.18
65316;BMP280;51920;53.952;10.292;2023-07-29T09:44:15;100076.41;;;23.15
65316;BMP280;51920;53.952;10.292;2023-07-29T09:46:45;100088.00;;;23.19
65316;BMP280;51920;53.952;10.292;2023-07-29T09:49:12;100087.69;;;22.91
65316;BMP280;51920;53.952;10.292;2023-07-29T09:51:39;100093.19;;;22.65
65316;BMP280;51920;53.952;10.292;2023-07-29T09:54:06;100090.16;;;22.42
65316;BMP280;51920;53.952;10.292;2023-07-29T09:56:33;100076.97;;;22.32
65316;BMP280;51920;53.952;10.292;2023-07-29T09:59:00;100076.56;;;22.39
65316;BMP280;51920;53.952;10.292;2023-07-29T10:01:29;100075.50;;;22.57
65316;BMP280;51920;53.952;10.292;2023-07-29T10:03:56;100069.19;;;22.71
65316;BMP280;51920;53.952;10.292;2023-07-29T10:06:26;100075.31;;;22.81
65316;BMP280;51920;53.952;10.292;2023-07-29T10:08:54;100070.44;;;22.96
65316;BMP280;51920;53.952;10.292;2023-07-29T10:11:21;100078.84;;;23.33
65316;BMP280;51920;53.952;10.292;2023-07-29T10:13:49;100073.88;;;23.69
65316;BMP280;51920;53.952;10.292;2023-07-29T10:16:26;100066.47;;;23.92
65316;BMP280;51920;53.952;10.292;2023-07-29T10:18:53;100068.72;;;23.88
65316;BMP280;51920;53.952;10.292;2023-07-29T10:21:22;100079.94;;;24.16
65316;BMP280;51920;53.952;10.292;2023-07-29T10:24:04;100077.63;;;24.52
65316;BMP280;51920;53.952;10.292;2023-07-29T10:26:46;100073.31;;;24.51
65316;BMP280;51920;53.952;10.292;2023-07-29T10:29:23;100072.41;;;24.93
65316;BMP280;51920;53.952;10.292;2023-07-29T10:31:52;100056.81;;;25.18
65316;BMP280;51920;53.952;10.292;2023-07-29T10:34:21;100054.81;;;25.47
65316;BMP280;51920;53.952;10.292;2023-07-29T10:36:49;100063.84;;;25.75
65316;BMP280;51920;53.952;10.292;2023-07-29T10:39:16;100055.31;;;25.40
65316;BMP280;51920;53.952;10.292;2023-07-29T10:41:56;100059.84;;;25.65
65316;BMP280;51920;53.952;10.292;2023-07-29T10:44:50;100068.41;;;25.45
65316;BMP280;51920;53.952;10.292;2023-07-29T10:47:24;100055.31;;;25.28
65316;BMP280;51920;53.952;10.292;2023-07-29T10:49:53;100057.53;;;25.69
65316;BMP280;51920;53.952;10.292;2023-07-29T10:55:03;100060.44;;;26.22
65316;BMP280;51920;53.952;10.292;2023-07-29T10:57:34;100064.72;;;26.28
65316;BMP280;51920;53.952;10.292;2023-07-29T11:00:03;100050.66;;;25.93
65316;BMP280;51920;53.952;10.292;2023-07-29T11:02:32;100054.78;;;25.69
65316;BMP280;51920;53.952;10.292;2023-07-29T11:05:16;100062.56;;;25.76
65316;BMP280;51920;53.952;10.292;2023-07-29T11:07:47;100045.91;;;25.88
65316;BMP280;51920;53.952;10.292;2023-07-29T11:10:15;100055.16;;;26.07
65316;BMP280;51920;53.952;10.292;2023-07-29T11:12:49;100047.03;;;26.26
65316;BMP280;51920;53.952;10.292;2023-07-29T11:15:28;100036.31;;;25.89
65316;BMP280;51920;53.952;10.292;2023-07-29T11:17:57;100060.88;;;25.23
65316;BMP280;51920;53.952;10.292;2023-07-29T11:20:25;100057.09;;;24.98
65316;BMP280;51920;53.952;10.292;2023-07-29T11:22:53;100049.94;;;24.69
65316;BMP280;51920;53.952;10.292;2023-07-29T11:25:25;100052.63;;;24.41
65316;BMP280;51920;53.952;10.292;2023-07-29T11:27:53;100050.13;;;24.43
65316;BMP280;51920;53.952;10.292;2023-07-29T11:30:20;100052.81;;;24.20
65316;BMP280;51920;53.952;10.292;2023-07-29T11:32:49;100042.75;;;24.23
65316;BMP280;51920;53.952;10.292;2023-07-29T11:35:17;100056.13;;;24.35
65316;BMP280;51920;53.952;10.292;2023-07-29T11:37:48;100042.03;;;24.39
65316;BMP280;51920;53.952;10.292;2023-07-29T11:40:17;100052.88;;;24.37
65316;BMP280;51920;53.952;10.292;2023-07-29T11:42:45;100055.63;;;24.37
65316;BMP280;51920;53.952;10.292;2023-07-29T11:45:13;100053.31;;;24.19
65316;BMP280;51920;53.952;10.292;2023-07-29T11:47:41;100054.84;;;24.25
65316;BMP280;51920;53.952;10.292;2023-07-29T11:50:10;100048.88;;;24.38
65316;BMP280;51920;53.952;10.292;2023-07-29T11:52:41;100052.59;;;24.29
65316;BMP280;51920;53.952;10.292;2023-07-29T11:55:09;100058.81;;;24.13
65316;BMP280;51920;53.952;10.292;2023-07-29T11:57:37;100051.06;;;24.23
65316;BMP280;51920;53.952;10.292;2023-07-29T12:00:05;100053.66;;;24.43
65316;BMP280;51920;53.952;10.292;2023-07-29T12:02:39;100058.47;;;24.48
65316;BMP280;51920;53.952;10.292;2023-07-29T12:05:08;100059.75;;;24.58
65316;BMP280;51920;53.952;10.292;2023-07-29T12:07:35;100059.22;;;24.49
65316;BMP280;51920;53.952;10.292;2023-07-29T12:10:05;100059.75;;;24.53
65316;BMP280;51920;53.952;10.292;2023-07-29T12:12:32;100064.75;;;24.49
65316;BMP280;51920;53.952;10.292;2023-07-29T12:14:59;100066.53;;;24.52
65316;BMP280;51920;53.952;10.292;2023-07-29T12:17:26;100060.44;;;24.36
65316;BMP280;51920;53.952;10.292;2023-07-29T12:19:54;100066.78;;;24.54
65316;BMP280;51920;53.952;10.292;2023-07-29T12:22:21;100055.66;;;24.43
65316;BMP280;51920;53.952;10.292;2023-07-29T12:24:50;100060.28;;;24.68
65316;BMP280;51920;53.952;10.292;2023-07-29T12:27:18;100058.78;;;24.67
65316;BMP280;51920;53.952;10.292;2023-07-29T12:29:51;100062.59;;;24.86
65316;BMP280;51920;53.952;10.292;2023-07-29T12:32:18;100062.03;;;24.60
65316;BMP280;51920;53.952;10.292;2023-07-29T12:34:45;100069.06;;;24.55
65316;BMP280;51920;53.952;10.292;2023-07-29T12:37:11;100059.75;;;24.64
65316;BMP280;51920;53.952;10.292;2023-07-29T12:39:40;100063.53;;;24.61
65316;BMP280;51920;53.952;10.292;2023-07-29T12:42:10;100058.94;;;24.47
65316;BMP280;51920;53.952;10.292;2023-07-29T12:44:37;100058.22;;;24.57
65316;BMP280;51920;53.952;10.292;2023-07-29T12:47:05;100059.03;;;24.75
65316;BMP280;51920;53.952;10.292;2023-07-29T12:49:32;100052.94;;;24.48
65316;BMP280;51920;53.952;10.292;2023-07-29T12:52:00;100052.16;;;24.48
65316;BMP280;51920;53.952;10.292;2023-07-29T12:54:27;100045.50;;;24.23
65316;BMP280;51920;53.952;10.292;2023-07-29T12:56:53;100046.81;;;24.27
65316;BMP280;51920;53.952;10.292;2023-07-29T12:59:20;100041.22;;;24.16
65316;BMP280;51920;53.952;10.292;2023-07-29T13:01:47;100044.91;;;24.02
65316;BMP280;51920;53.952;10.292;2023-07-29T13:04:14;100051.75;;;24.06
65316;BMP280;51920;53.952;10.292;2023-07-29T13:06:41;100054.16;;;23.93
65316;BMP280;51920;53.952;10.292;2023-07-29T13:09:07;100049.63;;;23.90
65316;BMP280;51920;53.952;10.292;2023-07-29T13:11:34;100056.16;;;23.87
65316;BMP280;51920;53.952;10.292;2023-07-29T13:14:01;100057.81;;;24.22
65316;BMP280;51920;53.952;10.292;2023-07-29T13:16:28;100049.88;;;24.46
65316;BMP280;51920;53.952;10.292;2023-07-29T13:18:56;100054.44;;;24.49
65316;BMP280;51920;53.952;10.292;2023-07-29T13:21:23;100052.94;;;24.54
65316;BMP280;51920;53.952;10.292;2023-07-29T13:23:51;100061.56;;;24.78
65316;BMP280;51920;53.952;10.292;2023-07-29T13:26:18;100058.31;;;24.85
65316;BMP280;51920;53.952;10.292;2023-07-29T13:28:45;100058.81;;;24.90
65316;BMP280;51920;53.952;10.292;2023-07-29T13:31:11;100064.38;;;25.01
65316;BMP280;51920;53.952;10.292;2023-07-29T13:33:39;100054.06;;;25.18
65316;BMP280;51920;53.952;10.292;2023-07-29T13:36:06;100057.81;;;25.04
65316;BMP280;51920;53.952;10.292;2023-07-29T13:38:34;100065.09;;;24.90
65316;BMP280;51920;53.952;10.292;2023-07-29T13:41:02;100075.34;;;24.56
65316;BMP280;51920;53.952;10.292;2023-07-29T13:43:29;100068.47;;;24.34
65316;BMP280;51920;53.952;10.292;2023-07-29T13:45:56;100071.00;;;24.38
65316;BMP280;51920;53.952;10.292;2023-07-29T13:48:23;100071.66;;;24.16
65316;BMP280;51920;53.952;10.292;2023-07-29T13:50:50;100070.19;;;24.32
65316;BMP280;51920;53.952;10.292;2023-07-29T13:53:18;100068.25;;;24.38
65316;BMP280;51920;53.952;10.292;2023-07-29T13:55:45;100064.69;;;24.37
65316;BMP280;51920;53.952;10.292;2023-07-29T13:58:11;100058.88;;;24.35
65316;BMP280;51920;53.952;10.292;2023-07-29T14:00:38;100061.75;;;24.52